Terminal Aerodrome Forecast
Issued by NWS

Home | Current Version | Previous Version | Text Only | Print | Product List | Glossary On
Versions: 1 2 3 4 5 6 7 8 9 10 11 12 13 14 15
000
FTUS43 KICT 191700
TAFSLN
TAF
KSLN 191739Z 1918/2018 20012KT P6SM SKC
     FM200100 17010KT P6SM SCT250
     FM201000 18010KT P6SM BKN070
     FM201500 22007KT P6SM BKN070=

USA.gov is the U.S. government's official web portal to all federal, state and local government web resources and services.